Terminal Aerodrome Forecast
Issued by NWS Des Moines, IA

Home | Current Version | Previous Version | Text Only | Print | Product List | Glossary On
Versions: 1 2 3 4 5 6 7 8 9 10 11 12 13 14 15 16 17 18 19 20 21 22 23 24 25 26 27 28 29
000
FTUS43 KDMX 192136 AAA
TAFDSM
TAF AMD
KDSM 192136Z 1922/2018 18012KT P6SM SCT250
     FM200800 16006KT P6SM OVC013
     FM201100 16007KT 4SM BR VCSH OVC009=

USA.gov is the U.S. government's official web portal to all federal, state and local government web resources and services.